NCAR-RAP Real-Time Weather Data

Output produced by METARs form (25 June 2022  05:40 UTC)
found at http://weather.rap.ucar.edu/surface/
 
KMDT 250456Z 13005KT 9SM CLR 21/18 A3007 RMK AO2 SLP183 T02060178 402720167
KMDT 250356Z 13005KT 10SM CLR 21/18 A3006 RMK AO2 SLP179 T02110178
KMDT 250256Z 00000KT 10SM CLR 22/18 A3006 RMK AO2 SLP179 T02220183 51008
KMDT 250156Z 14004KT 10SM FEW200 23/19 A3006 RMK AO2 SLP178 T02330194
KMDT 250056Z 00000KT 10SM FEW200 24/19 A3004 RMK AO2 SLP173 T02390189
KMDT 242356Z 21003KT 10SM CLR 26/20 A3004 RMK AO2 SLP170 T02560200 10272 20244 53002
KMDT 242256Z 15004KT 10SM FEW030 27/18 A3003 RMK AO2 SLP169 T02720183
KMDT 242156Z 14005KT 10SM FEW030 27/17 A3002 RMK AO2 SLP166 T02720172
KMDT 242056Z 14005KT 10SM SCT030 27/18 A3003 RMK AO2 SLP168 T02670178 56007
KMDT 241956Z 15004KT 10SM SCT030 26/18 A3003 RMK AO2 SLP169 T02610178
KMDT 241856Z 17003KT 10SM BKN030 26/18 A3005 RMK AO2 SLP174 T02610178
KMDT 241756Z 18004KT 10SM OVC029 24/17 A3005 RMK AO2 SLP175 T02440167 10244 20178 58007